Alhaurin de la Torre, Spain
Current Conditions -  °F | °C
As of 11:00 AM on Sunday 23 Nov 2014 (Local Time) from LEMG Reporting Station
Clear Clear  
Wind Chill: 68°   Ceiling: Unl
Heat Index: 68°   Visibility: 4mi
Dew Point: 57°   Wind: 5mph
Humidity: 68%   Direction: 140°SE
Pressure: 29.85"   Gusts: NA
Location:  36.66°N, 4.56°W
Report Text: LEMG 231000Z 14004KT 090V170 7000 NSC 20/14 Q1011 NOSIG
Loading
Personal Weather Stations






























Interactive Weather Map New forecast layout! Learn more

10-Day Weather Forecast

Advertisements
Track Severe Weather on mobile